Norton, West Virginia
Current Conditions -  °F | °C
As of 8:51 PM on Saturday 25 Oct 2014 (Local Time) from KEKN Reporting Station
Clear Clear  
Wind Chill: 58°   Ceiling: Unl
Heat Index: 58°   Visibility: 10mi
Dew Point: 50°   Wind: 10mph
Humidity: 75%   Direction: 260°W
Pressure: 29.87"   Gusts: 24mph
Location:  38.94°N, 79.96°W
Report Text: KEKN 260051Z AUTO 26009G21KT 10SM CLR 14/10 A2987 RMK AO2 SLP124 T01440100 TSNO
Loading
Personal Weather Stations






























Interactive Weather Map
Tropical Storm Tracking
New forecast layout! Learn more

10-Day Weather Forecast

Advertisements
Track Severe Weather on mobile